VOZ946 YBBN-YSSY
Flight info
| Callsign | VOZ946 |
|---|---|
| Flight time | 1h 12m |
| Altitude | 30000 |
| Route | SANEG2/19L SANEG H91 IGDAM H652 TESAT |
| Aircraft | B738/M-SAE3DGHIM1RWZ/LB1 |
Departure
| Time | 2026-05-04 02:38 |
|---|---|
| Airport | Brisbane International Airport (YBBN) |
Arrival
| Time | 2026-05-04 03:51 |
|---|---|
| Airport | Sydney Kingsford Smith International Airport (YSSY) |
| Time | Latitude | Longitude | Altitude | Speed | Heading |
|---|---|---|---|---|---|
| 2026-05-04 02:08 | -27.38718 | 153.11995 | 20 ft | 0 kts | 335° |
| 2026-05-04 02:26 | -27.38722 | 153.11997 | 20 ft | 3 kts | 339° |
| 2026-05-04 02:26 | -27.38746 | 153.12002 | 22 ft | 4 kts | 325° |
| 2026-05-04 02:27 | -27.38761 | 153.12016 | 20 ft | 4 kts | 284° |
| 2026-05-04 02:27 | -27.38760 | 153.12036 | 23 ft | 4 kts | 266° |
| 2026-05-04 02:27 | -27.38767 | 153.12061 | 21 ft | 4 kts | 315° |
| 2026-05-04 02:27 | -27.38784 | 153.12079 | 20 ft | 4 kts | 319° |
| 2026-05-04 02:28 | -27.38804 | 153.12099 | 23 ft | 3 kts | 319° |
| 2026-05-04 02:28 | -27.38807 | 153.12102 | 23 ft | 0 kts | 319° |
| 2026-05-04 02:31 | -27.38807 | 153.12101 | 23 ft | 1 kts | 319° |
| 2026-05-04 02:32 | -27.38793 | 153.12090 | 20 ft | 3 kts | 328° |
| 2026-05-04 02:32 | -27.38771 | 153.12082 | 21 ft | 3 kts | 356° |
| 2026-05-04 02:32 | -27.38760 | 153.12105 | 20 ft | 4 kts | 94° |
| 2026-05-04 02:32 | -27.38769 | 153.12151 | 21 ft | 8 kts | 105° |
| 2026-05-04 02:33 | -27.38786 | 153.12223 | 21 ft | 11 kts | 105° |
| 2026-05-04 02:33 | -27.38775 | 153.12312 | 22 ft | 13 kts | 47° |
| 2026-05-04 02:33 | -27.38686 | 153.12369 | 22 ft | 16 kts | 26° |
| 2026-05-04 02:33 | -27.38582 | 153.12428 | 20 ft | 15 kts | 27° |
| 2026-05-04 02:34 | -27.38478 | 153.12488 | 20 ft | 18 kts | 26° |
| 2026-05-04 02:34 | -27.38357 | 153.12556 | 22 ft | 21 kts | 27° |
| 2026-05-04 02:34 | -27.38235 | 153.12627 | 20 ft | 20 kts | 27° |
| 2026-05-04 02:34 | -27.38145 | 153.12679 | 20 ft | 12 kts | 25° |
| 2026-05-04 02:35 | -27.38101 | 153.12703 | 23 ft | 8 kts | 27° |
| 2026-05-04 02:35 | -27.38079 | 153.12716 | 21 ft | 0 kts | 27° |
| 2026-05-04 02:36 | -27.38078 | 153.12716 | 21 ft | 0 kts | 27° |
| 2026-05-04 02:36 | -27.38057 | 153.12728 | 20 ft | 7 kts | 26° |
| 2026-05-04 02:36 | -27.38008 | 153.12759 | 21 ft | 8 kts | 41° |
| 2026-05-04 02:36 | -27.37994 | 153.12798 | 20 ft | 8 kts | 85° |
| 2026-05-04 02:37 | -27.38010 | 153.12856 | 22 ft | 8 kts | 114° |
| 2026-05-04 02:37 | -27.38050 | 153.12945 | 20 ft | 16 kts | 117° |
| 2026-05-04 02:37 | -27.38165 | 153.13028 | 21 ft | 28 kts | 193° |
| 2026-05-04 02:37 | -27.38354 | 153.12925 | 22 ft | 68 kts | 207° |
| 2026-05-04 02:38 | -27.38990 | 153.12562 | 20 ft | 135 kts | 207° |
| 2026-05-04 02:38 | -27.39975 | 153.11988 | 183 ft | 172 kts | 206° |
| 2026-05-04 02:38 | -27.41033 | 153.11360 | 984 ft | 170 kts | 204° |
| 2026-05-04 02:38 | -27.42144 | 153.10917 | 1609 ft | 178 kts | 179° |
| 2026-05-04 02:39 | -27.43380 | 153.11392 | 1931 ft | 203 kts | 150° |
| 2026-05-04 02:39 | -27.44705 | 153.12170 | 2245 ft | 224 kts | 151° |
| 2026-05-04 02:39 | -27.46148 | 153.12981 | 2650 ft | 237 kts | 152° |
| 2026-05-04 02:39 | -27.47632 | 153.13813 | 3286 ft | 239 kts | 152° |
| 2026-05-04 02:40 | -27.49203 | 153.14638 | 3613 ft | 260 kts | 161° |
| 2026-05-04 02:40 | -27.51027 | 153.14675 | 4326 ft | 269 kts | 191° |
| 2026-05-04 02:40 | -27.52848 | 153.14200 | 5233 ft | 270 kts | 191° |
| 2026-05-04 02:40 | -27.54702 | 153.13729 | 5966 ft | 277 kts | 191° |
| 2026-05-04 02:41 | -27.56588 | 153.13187 | 6766 ft | 280 kts | 197° |
| 2026-05-04 02:41 | -27.58438 | 153.12457 | 7530 ft | 284 kts | 199° |
| 2026-05-04 02:41 | -27.60318 | 153.11689 | 8266 ft | 288 kts | 199° |
| 2026-05-04 02:41 | -27.62209 | 153.10928 | 9095 ft | 289 kts | 198° |
| 2026-05-04 02:42 | -27.64156 | 153.10243 | 9783 ft | 297 kts | 197° |
| 2026-05-04 02:42 | -27.66156 | 153.09585 | 10436 ft | 304 kts | 197° |
| 2026-05-04 02:42 | -27.68270 | 153.08894 | 10616 ft | 328 kts | 197° |
| 2026-05-04 02:42 | -27.70530 | 153.08150 | 10921 ft | 344 kts | 197° |
| 2026-05-04 02:43 | -27.72859 | 153.07380 | 11487 ft | 351 kts | 198° |
| 2026-05-04 02:43 | -27.75189 | 153.06604 | 12163 ft | 355 kts | 198° |
| 2026-05-04 02:43 | -27.77565 | 153.05810 | 12850 ft | 358 kts | 199° |
| 2026-05-04 02:43 | -27.79972 | 153.05005 | 13524 ft | 363 kts | 199° |
| 2026-05-04 02:44 | -27.82432 | 153.04162 | 14164 ft | 366 kts | 201° |
| 2026-05-04 02:44 | -27.84832 | 153.03177 | 14794 ft | 368 kts | 204° |
| 2026-05-04 02:44 | -27.87196 | 153.02123 | 15449 ft | 370 kts | 205° |
| 2026-05-04 02:44 | -27.89600 | 153.01035 | 16103 ft | 374 kts | 205° |
| 2026-05-04 02:45 | -27.92059 | 152.99928 | 16737 ft | 378 kts | 205° |
| 2026-05-04 02:45 | -27.94487 | 152.98847 | 17355 ft | 381 kts | 205° |
| 2026-05-04 02:45 | -27.97003 | 152.97736 | 17985 ft | 385 kts | 205° |
| 2026-05-04 02:45 | -27.99482 | 152.96646 | 18557 ft | 389 kts | 206° |
| 2026-05-04 02:46 | -28.02018 | 152.95534 | 19096 ft | 392 kts | 206° |
| 2026-05-04 02:46 | -28.04569 | 152.94415 | 19655 ft | 394 kts | 206° |
| 2026-05-04 02:46 | -28.07132 | 152.93290 | 20204 ft | 397 kts | 206° |
| 2026-05-04 02:46 | -28.09718 | 152.92153 | 20747 ft | 400 kts | 206° |
| 2026-05-04 02:47 | -28.12352 | 152.90987 | 21286 ft | 403 kts | 206° |
| 2026-05-04 02:47 | -28.14939 | 152.89837 | 21802 ft | 406 kts | 206° |
| 2026-05-04 02:47 | -28.17586 | 152.88658 | 22330 ft | 409 kts | 206° |
| 2026-05-04 02:47 | -28.20245 | 152.87475 | 22847 ft | 412 kts | 206° |
| 2026-05-04 02:48 | -28.22921 | 152.86283 | 23354 ft | 415 kts | 207° |
| 2026-05-04 02:48 | -28.25624 | 152.85079 | 23826 ft | 417 kts | 207° |
| 2026-05-04 02:48 | -28.28343 | 152.83867 | 24247 ft | 420 kts | 207° |
| 2026-05-04 02:48 | -28.31067 | 152.82654 | 24691 ft | 422 kts | 207° |
| 2026-05-04 02:49 | -28.33805 | 152.81433 | 25123 ft | 424 kts | 208° |
| 2026-05-04 02:49 | -28.36555 | 152.80206 | 25570 ft | 425 kts | 208° |
| 2026-05-04 02:49 | -28.39313 | 152.78976 | 26015 ft | 427 kts | 208° |
| 2026-05-04 02:49 | -28.42081 | 152.77735 | 26452 ft | 428 kts | 208° |
| 2026-05-04 02:50 | -28.44847 | 152.76500 | 26997 ft | 426 kts | 208° |
| 2026-05-04 02:50 | -28.47598 | 152.75274 | 27517 ft | 425 kts | 209° |
| 2026-05-04 02:50 | -28.50348 | 152.74045 | 28062 ft | 423 kts | 209° |
| 2026-05-04 02:50 | -28.53079 | 152.72826 | 28660 ft | 420 kts | 210° |
| 2026-05-04 02:51 | -28.55808 | 152.71605 | 29171 ft | 419 kts | 210° |
| 2026-05-04 02:51 | -28.58517 | 152.70392 | 29797 ft | 416 kts | 210° |
| 2026-05-04 02:51 | -28.61222 | 152.69178 | 30117 ft | 421 kts | 211° |
| 2026-05-04 02:51 | -28.63957 | 152.67944 | 30114 ft | 424 kts | 211° |
| 2026-05-04 02:52 | -28.69554 | 152.65423 | 30122 ft | 440 kts | 210° |
| 2026-05-04 02:52 | -28.75352 | 152.62815 | 30117 ft | 454 kts | 210° |
| 2026-05-04 02:53 | -28.81321 | 152.60134 | 30119 ft | 465 kts | 210° |
| 2026-05-04 02:53 | -28.87266 | 152.57289 | 30107 ft | 459 kts | 214° |
| 2026-05-04 02:54 | -28.92893 | 152.53944 | 30107 ft | 455 kts | 217° |
| 2026-05-04 02:54 | -28.98454 | 152.50525 | 30094 ft | 453 kts | 216° |
| 2026-05-04 02:55 | -29.06815 | 152.45485 | 30122 ft | 453 kts | 216° |
| 2026-05-04 02:56 | -29.12408 | 152.42145 | 30107 ft | 454 kts | 216° |
| 2026-05-04 02:56 | -29.18002 | 152.38801 | 30107 ft | 453 kts | 216° |
| 2026-05-04 02:57 | -29.23598 | 152.35457 | 30096 ft | 455 kts | 216° |
| 2026-05-04 02:57 | -29.29208 | 152.32099 | 30147 ft | 455 kts | 216° |
| 2026-05-04 02:58 | -29.34825 | 152.28728 | 30115 ft | 456 kts | 216° |
| 2026-05-04 02:58 | -29.40463 | 152.25341 | 30108 ft | 458 kts | 216° |
| 2026-05-04 02:59 | -29.46111 | 152.21944 | 30106 ft | 458 kts | 216° |
| 2026-05-04 02:59 | -29.51760 | 152.18541 | 30124 ft | 458 kts | 217° |
| 2026-05-04 03:00 | -29.57409 | 152.15148 | 30108 ft | 457 kts | 217° |
| 2026-05-04 03:00 | -29.63029 | 152.11752 | 30111 ft | 456 kts | 217° |
| 2026-05-04 03:01 | -29.68652 | 152.08371 | 30103 ft | 457 kts | 214° |
| 2026-05-04 03:01 | -29.71630 | 152.06991 | 30103 ft | 468 kts | 205° |
| 2026-05-04 03:01 | -29.74810 | 152.06075 | 30142 ft | 473 kts | 201° |
| 2026-05-04 03:02 | -29.81274 | 152.04474 | 30090 ft | 475 kts | 201° |
| 2026-05-04 03:02 | -29.87738 | 152.02864 | 30094 ft | 476 kts | 201° |
| 2026-05-04 03:03 | -29.94189 | 152.01193 | 30116 ft | 475 kts | 202° |
| 2026-05-04 03:03 | -30.00641 | 151.99504 | 30120 ft | 475 kts | 202° |
| 2026-05-04 03:04 | -30.07096 | 151.97810 | 30097 ft | 476 kts | 202° |
| 2026-05-04 03:04 | -30.13550 | 151.96116 | 30100 ft | 477 kts | 202° |
| 2026-05-04 03:05 | -30.20017 | 151.94414 | 30091 ft | 477 kts | 202° |
| 2026-05-04 03:05 | -30.26488 | 151.92712 | 30091 ft | 477 kts | 202° |
| 2026-05-04 03:06 | -30.32939 | 151.90946 | 30096 ft | 472 kts | 206° |
| 2026-05-04 03:06 | -30.38991 | 151.88263 | 30093 ft | 463 kts | 212° |
| 2026-05-04 03:07 | -30.44936 | 151.85382 | 30110 ft | 462 kts | 212° |
| 2026-05-04 03:07 | -30.50894 | 151.82541 | 30092 ft | 463 kts | 212° |
| 2026-05-04 03:08 | -30.56872 | 151.79738 | 30084 ft | 463 kts | 211° |
| 2026-05-04 03:08 | -30.62850 | 151.76950 | 30082 ft | 463 kts | 211° |
| 2026-05-04 03:09 | -30.67824 | 151.74629 | 30093 ft | 463 kts | 211° |
| 2026-05-04 03:09 | -30.73799 | 151.71834 | 30083 ft | 462 kts | 211° |
| 2026-05-04 03:10 | -30.79767 | 151.69037 | 30077 ft | 462 kts | 211° |
| 2026-05-04 03:10 | -30.85732 | 151.66236 | 30082 ft | 463 kts | 211° |
| 2026-05-04 03:11 | -30.91705 | 151.63430 | 30088 ft | 463 kts | 211° |
| 2026-05-04 03:11 | -30.97690 | 151.60613 | 30078 ft | 464 kts | 212° |
| 2026-05-04 03:12 | -31.03681 | 151.57790 | 30081 ft | 464 kts | 212° |
| 2026-05-04 03:12 | -31.09687 | 151.54956 | 30085 ft | 465 kts | 212° |
| 2026-05-04 03:13 | -31.15686 | 151.52122 | 30084 ft | 466 kts | 211° |
| 2026-05-04 03:13 | -31.21705 | 151.49273 | 30080 ft | 467 kts | 211° |
| 2026-05-04 03:14 | -31.27734 | 151.46417 | 30084 ft | 468 kts | 211° |
| 2026-05-04 03:14 | -31.33771 | 151.43552 | 30085 ft | 469 kts | 211° |
| 2026-05-04 03:15 | -31.39826 | 151.40683 | 30084 ft | 471 kts | 211° |
| 2026-05-04 03:15 | -31.45957 | 151.37926 | 30072 ft | 473 kts | 210° |
| 2026-05-04 03:16 | -31.52127 | 151.35204 | 30075 ft | 473 kts | 210° |
| 2026-05-04 03:16 | -31.58280 | 151.32469 | 30091 ft | 474 kts | 210° |
| 2026-05-04 03:17 | -31.64446 | 151.29707 | 30068 ft | 475 kts | 210° |
| 2026-05-04 03:17 | -31.70624 | 151.26934 | 30062 ft | 475 kts | 210° |
| 2026-05-04 03:18 | -31.76790 | 151.24163 | 30051 ft | 474 kts | 211° |
| 2026-05-04 03:18 | -31.82956 | 151.21387 | 30067 ft | 474 kts | 211° |
| 2026-05-04 03:19 | -31.89137 | 151.18605 | 30045 ft | 475 kts | 211° |
| 2026-05-04 03:19 | -31.95310 | 151.15820 | 30048 ft | 474 kts | 211° |
| 2026-05-04 03:20 | -32.01479 | 151.13054 | 30073 ft | 475 kts | 211° |
| 2026-05-04 03:20 | -32.07506 | 151.10372 | 30005 ft | 449 kts | 211° |
| 2026-05-04 03:20 | -32.10413 | 151.09083 | 30046 ft | 432 kts | 211° |
| 2026-05-04 03:21 | -32.13142 | 151.07866 | 29991 ft | 417 kts | 212° |
| 2026-05-04 03:21 | -32.15868 | 151.06639 | 29672 ft | 411 kts | 212° |
| 2026-05-04 03:21 | -32.18518 | 151.05440 | 29296 ft | 406 kts | 212° |
| 2026-05-04 03:21 | -32.21141 | 151.04250 | 28977 ft | 401 kts | 212° |
| 2026-05-04 03:22 | -32.23736 | 151.03072 | 28557 ft | 399 kts | 212° |
| 2026-05-04 03:22 | -32.26324 | 151.01900 | 28149 ft | 397 kts | 212° |
| 2026-05-04 03:22 | -32.28903 | 151.00733 | 27752 ft | 394 kts | 211° |
| 2026-05-04 03:22 | -32.31458 | 150.99578 | 27363 ft | 392 kts | 211° |
| 2026-05-04 03:23 | -32.34011 | 150.98422 | 26970 ft | 392 kts | 211° |
| 2026-05-04 03:23 | -32.36523 | 150.97286 | 26594 ft | 390 kts | 210° |
| 2026-05-04 03:23 | -32.39049 | 150.96144 | 26213 ft | 387 kts | 210° |
| 2026-05-04 03:23 | -32.41553 | 150.95012 | 25830 ft | 384 kts | 210° |
| 2026-05-04 03:24 | -32.44041 | 150.93885 | 25462 ft | 381 kts | 210° |
| 2026-05-04 03:24 | -32.46545 | 150.92752 | 25087 ft | 379 kts | 209° |
| 2026-05-04 03:24 | -32.49073 | 150.91899 | 24703 ft | 387 kts | 197° |
| 2026-05-04 03:24 | -32.51779 | 150.91631 | 24421 ft | 392 kts | 186° |
| 2026-05-04 03:25 | -32.54506 | 150.91928 | 24201 ft | 394 kts | 179° |
| 2026-05-04 03:25 | -32.57202 | 150.92421 | 23967 ft | 391 kts | 177° |
| 2026-05-04 03:25 | -32.59877 | 150.92940 | 23656 ft | 388 kts | 177° |
| 2026-05-04 03:25 | -32.62533 | 150.93444 | 23253 ft | 385 kts | 177° |
| 2026-05-04 03:26 | -32.65165 | 150.93944 | 22910 ft | 383 kts | 177° |
| 2026-05-04 03:26 | -32.67810 | 150.94426 | 22507 ft | 384 kts | 177° |
| 2026-05-04 03:26 | -32.70449 | 150.94895 | 22104 ft | 384 kts | 177° |
| 2026-05-04 03:26 | -32.73119 | 150.95367 | 21767 ft | 380 kts | 176° |
| 2026-05-04 03:27 | -32.75694 | 150.95824 | 21375 ft | 379 kts | 176° |
| 2026-05-04 03:27 | -32.78327 | 150.96292 | 20995 ft | 378 kts | 176° |
| 2026-05-04 03:27 | -32.80886 | 150.96746 | 20681 ft | 374 kts | 176° |
| 2026-05-04 03:27 | -32.83488 | 150.97209 | 20332 ft | 373 kts | 176° |
| 2026-05-04 03:28 | -32.86052 | 150.97665 | 19963 ft | 372 kts | 176° |
| 2026-05-04 03:28 | -32.88606 | 150.98120 | 19595 ft | 371 kts | 176° |
| 2026-05-04 03:28 | -32.91156 | 150.98574 | 19237 ft | 370 kts | 175° |
| 2026-05-04 03:28 | -32.93675 | 150.99023 | 18842 ft | 370 kts | 175° |
| 2026-05-04 03:29 | -32.96227 | 150.99477 | 18463 ft | 370 kts | 175° |
| 2026-05-04 03:29 | -32.98771 | 150.99931 | 18040 ft | 370 kts | 175° |
| 2026-05-04 03:29 | -33.01345 | 151.00389 | 17652 ft | 369 kts | 175° |
| 2026-05-04 03:29 | -33.03880 | 151.00843 | 17254 ft | 367 kts | 175° |
| 2026-05-04 03:30 | -33.06397 | 151.01294 | 16887 ft | 366 kts | 175° |
| 2026-05-04 03:30 | -33.08915 | 151.01745 | 16499 ft | 365 kts | 175° |
| 2026-05-04 03:30 | -33.11420 | 151.02193 | 16128 ft | 363 kts | 175° |
| 2026-05-04 03:30 | -33.13918 | 151.02641 | 15758 ft | 362 kts | 175° |
| 2026-05-04 03:31 | -33.16402 | 151.03090 | 15370 ft | 361 kts | 174° |
| 2026-05-04 03:31 | -33.18879 | 151.03536 | 15029 ft | 358 kts | 175° |
| 2026-05-04 03:31 | -33.21347 | 151.03974 | 14635 ft | 358 kts | 174° |
| 2026-05-04 03:31 | -33.23803 | 151.04412 | 14279 ft | 357 kts | 173° |
| 2026-05-04 03:32 | -33.26232 | 151.04872 | 13919 ft | 349 kts | 173° |
| 2026-05-04 03:32 | -33.28605 | 151.05332 | 13517 ft | 340 kts | 173° |
| 2026-05-04 03:32 | -33.30909 | 151.05779 | 13171 ft | 331 kts | 173° |
| 2026-05-04 03:32 | -33.33154 | 151.06208 | 12809 ft | 324 kts | 173° |
| 2026-05-04 03:33 | -33.35369 | 151.06631 | 12473 ft | 320 kts | 173° |
| 2026-05-04 03:33 | -33.37563 | 151.07051 | 12148 ft | 320 kts | 173° |
| 2026-05-04 03:33 | -33.39778 | 151.07475 | 11818 ft | 326 kts | 173° |
| 2026-05-04 03:33 | -33.42016 | 151.07904 | 11453 ft | 324 kts | 173° |
| 2026-05-04 03:34 | -33.44214 | 151.08327 | 11112 ft | 317 kts | 174° |
| 2026-05-04 03:34 | -33.46408 | 151.08748 | 10786 ft | 321 kts | 173° |
| 2026-05-04 03:34 | -33.48625 | 151.09174 | 10445 ft | 323 kts | 173° |
| 2026-05-04 03:34 | -33.50835 | 151.09600 | 10199 ft | 320 kts | 173° |
| 2026-05-04 03:35 | -33.53021 | 151.10021 | 10016 ft | 315 kts | 173° |
| 2026-05-04 03:35 | -33.55165 | 151.10434 | 9773 ft | 310 kts | 174° |
| 2026-05-04 03:35 | -33.57275 | 151.10842 | 9463 ft | 304 kts | 173° |
| 2026-05-04 03:35 | -33.59354 | 151.11240 | 9171 ft | 300 kts | 173° |
| 2026-05-04 03:36 | -33.61401 | 151.11635 | 8895 ft | 296 kts | 173° |
| 2026-05-04 03:36 | -33.63410 | 151.12031 | 8722 ft | 291 kts | 173° |
| 2026-05-04 03:36 | -33.65408 | 151.12425 | 8563 ft | 290 kts | 173° |
| 2026-05-04 03:36 | -33.67413 | 151.12822 | 8400 ft | 294 kts | 173° |
| 2026-05-04 03:37 | -33.69450 | 151.13224 | 8236 ft | 298 kts | 173° |
| 2026-05-04 03:37 | -33.71492 | 151.13625 | 8044 ft | 297 kts | 173° |
| 2026-05-04 03:37 | -33.73499 | 151.14014 | 7870 ft | 295 kts | 173° |
| 2026-05-04 03:37 | -33.75521 | 151.14405 | 7729 ft | 293 kts | 173° |
| 2026-05-04 03:38 | -33.77533 | 151.14795 | 7566 ft | 292 kts | 173° |
| 2026-05-04 03:38 | -33.79530 | 151.15182 | 7402 ft | 291 kts | 173° |
| 2026-05-04 03:38 | -33.81528 | 151.15402 | 7213 ft | 286 kts | 190° |
| 2026-05-04 03:38 | -33.83459 | 151.14901 | 7099 ft | 283 kts | 198° |
| 2026-05-04 03:39 | -33.85382 | 151.14312 | 6929 ft | 286 kts | 198° |
| 2026-05-04 03:39 | -33.87313 | 151.13728 | 6734 ft | 287 kts | 198° |
| 2026-05-04 03:39 | -33.89242 | 151.13158 | 6570 ft | 285 kts | 197° |
| 2026-05-04 03:39 | -33.91178 | 151.12595 | 6413 ft | 285 kts | 197° |
| 2026-05-04 03:40 | -33.93109 | 151.12037 | 6240 ft | 286 kts | 197° |
| 2026-05-04 03:40 | -33.95048 | 151.11476 | 6053 ft | 286 kts | 197° |
| 2026-05-04 03:40 | -33.96979 | 151.10919 | 5881 ft | 285 kts | 197° |
| 2026-05-04 03:40 | -33.98909 | 151.10363 | 5708 ft | 284 kts | 198° |
| 2026-05-04 03:41 | -34.00832 | 151.09807 | 5550 ft | 283 kts | 197° |
| 2026-05-04 03:41 | -34.02747 | 151.09254 | 5370 ft | 283 kts | 197° |
| 2026-05-04 03:41 | -34.04658 | 151.08701 | 5204 ft | 282 kts | 198° |
| 2026-05-04 03:41 | -34.06562 | 151.08147 | 5012 ft | 281 kts | 198° |
| 2026-05-04 03:42 | -34.08505 | 151.07832 | 4818 ft | 286 kts | 177° |
| 2026-05-04 03:42 | -34.10440 | 151.08303 | 4686 ft | 282 kts | 168° |
| 2026-05-04 03:42 | -34.12355 | 151.08833 | 4494 ft | 283 kts | 169° |
| 2026-05-04 03:42 | -34.13633 | 151.09175 | 4374 ft | 283 kts | 169° |
| 2026-05-04 03:43 | -34.15583 | 151.09691 | 4223 ft | 284 kts | 169° |
| 2026-05-04 03:43 | -34.18149 | 151.10359 | 3972 ft | 285 kts | 170° |
| 2026-05-04 03:43 | -34.19433 | 151.10691 | 3868 ft | 285 kts | 170° |
| 2026-05-04 03:43 | -34.21348 | 151.11412 | 3692 ft | 286 kts | 149° |
| 2026-05-04 03:44 | -34.22681 | 151.13102 | 3641 ft | 276 kts | 112° |
| 2026-05-04 03:44 | -34.23022 | 151.15294 | 3579 ft | 263 kts | 77° |
| 2026-05-04 03:44 | -34.22601 | 151.17428 | 3501 ft | 261 kts | 63° |
| 2026-05-04 03:44 | -34.21772 | 151.19347 | 3364 ft | 255 kts | 47° |
| 2026-05-04 03:45 | -34.20609 | 151.20872 | 3258 ft | 236 kts | 32° |
| 2026-05-04 03:45 | -34.19270 | 151.21814 | 3166 ft | 212 kts | 15° |
| 2026-05-04 03:45 | -34.17908 | 151.22266 | 3018 ft | 195 kts | 4° |
| 2026-05-04 03:45 | -34.16618 | 151.22423 | 2940 ft | 178 kts | 358° |
| 2026-05-04 03:46 | -34.15395 | 151.22470 | 2946 ft | 174 kts | 353° |
| 2026-05-04 03:46 | -34.14204 | 151.22378 | 2957 ft | 170 kts | 351° |
| 2026-05-04 03:46 | -34.13021 | 151.22252 | 2949 ft | 171 kts | 348° |
| 2026-05-04 03:46 | -34.11836 | 151.22041 | 2948 ft | 173 kts | 347° |
| 2026-05-04 03:47 | -34.10631 | 151.21758 | 2855 ft | 180 kts | 346° |
| 2026-05-04 03:47 | -34.09391 | 151.21444 | 2639 ft | 181 kts | 345° |
| 2026-05-04 03:47 | -34.08205 | 151.21137 | 2400 ft | 167 kts | 345° |
| 2026-05-04 03:47 | -34.07110 | 151.20852 | 2193 ft | 157 kts | 346° |
| 2026-05-04 03:48 | -34.06056 | 151.20577 | 1999 ft | 152 kts | 346° |
| 2026-05-04 03:48 | -34.05047 | 151.20314 | 1794 ft | 145 kts | 346° |
| 2026-05-04 03:48 | -34.04072 | 151.20060 | 1605 ft | 142 kts | 347° |
| 2026-05-04 03:48 | -34.03122 | 151.19812 | 1419 ft | 140 kts | 346° |
| 2026-05-04 03:49 | -34.02171 | 151.19564 | 1242 ft | 140 kts | 347° |
| 2026-05-04 03:49 | -34.01224 | 151.19318 | 1054 ft | 139 kts | 347° |
| 2026-05-04 03:49 | -34.00271 | 151.19066 | 915 ft | 141 kts | 348° |
| 2026-05-04 03:49 | -33.99317 | 151.18792 | 658 ft | 143 kts | 347° |
| 2026-05-04 03:50 | -33.98320 | 151.18529 | 468 ft | 149 kts | 349° |
| 2026-05-04 03:50 | -33.97302 | 151.18273 | 274 ft | 148 kts | 351° |
| 2026-05-04 03:50 | -33.96298 | 151.18025 | 49 ft | 148 kts | 349° |
| 2026-05-04 03:50 | -33.95417 | 151.17805 | 28 ft | 100 kts | 349° |
| 2026-05-04 03:51 | -33.94963 | 151.17684 | 27 ft | 51 kts | 348° |
| 2026-05-04 03:51 | -33.94633 | 151.17646 | 28 ft | 42 kts | 12° |
| 2026-05-04 03:51 | -33.94573 | 151.17665 | 29 ft | 0 kts | 14° |
| 2026-05-04 03:52 | -33.94560 | 151.17669 | 29 ft | 5 kts | 14° |
| 2026-05-04 03:53 | -33.94525 | 151.17680 | 29 ft | 5 kts | 15° |
| 2026-05-04 03:53 | -33.94490 | 151.17693 | 29 ft | 5 kts | 17° |
| 2026-05-04 03:53 | -33.94444 | 151.17710 | 29 ft | 9 kts | 17° |
| 2026-05-04 03:53 | -33.94381 | 151.17734 | 29 ft | 10 kts | 17° |
| 2026-05-04 03:54 | -33.94316 | 151.17731 | 29 ft | 9 kts | 351° |
| 2026-05-04 03:54 | -33.94254 | 151.17711 | 28 ft | 9 kts | 343° |
| 2026-05-04 03:54 | -33.94194 | 151.17689 | 28 ft | 9 kts | 343° |
| 2026-05-04 03:54 | -33.94135 | 151.17673 | 28 ft | 9 kts | 347° |
| 2026-05-04 03:55 | -33.94073 | 151.17656 | 27 ft | 10 kts | 347° |
| 2026-05-04 03:55 | -33.94002 | 151.17637 | 27 ft | 11 kts | 347° |
| 2026-05-04 03:55 | -33.93930 | 151.17618 | 28 ft | 10 kts | 348° |
| 2026-05-04 03:55 | -33.93873 | 151.17652 | 28 ft | 10 kts | 59° |
| 2026-05-04 03:56 | -33.93850 | 151.17729 | 29 ft | 10 kts | 59° |
| 2026-05-04 03:56 | -33.93793 | 151.17768 | 29 ft | 10 kts | 15° |
| 2026-05-04 03:56 | -33.93729 | 151.17787 | 29 ft | 9 kts | 14° |
| 2026-05-04 03:56 | -33.93668 | 151.17805 | 29 ft | 9 kts | 14° |
| 2026-05-04 03:57 | -33.93624 | 151.17820 | 29 ft | 5 kts | 37° |
| 2026-05-04 03:57 | -33.93620 | 151.17859 | 29 ft | 5 kts | 102° |
| 2026-05-04 03:57 | -33.93624 | 151.17883 | 29 ft | 2 kts | 99° |
| 2026-05-04 03:57 | -33.93625 | 151.17891 | 29 ft | 0 kts | 99° |